createdAt,value
2022-12-18T00:02:02.161Z,34.53
2022-12-18T00:05:06.001Z,38.50
2022-12-18T00:08:09.674Z,38.95
2022-12-18T00:11:16.088Z,32.55
2022-12-18T00:14:19.447Z,37.90
2022-12-18T00:17:22.790Z,36.70
2022-12-18T00:20:26.780Z,27.67
2022-12-18T00:23:31.589Z,38.90
2022-12-18T00:26:36.917Z,35.92
2022-12-18T00:29:43.539Z,44.13
2022-12-18T00:32:46.947Z,39.20
2022-12-18T00:35:50.268Z,43.87
2022-12-18T00:38:56.021Z,43.58
2022-12-18T00:42:18.066Z,40.33
2022-12-18T00:45:21.530Z,42.50
2022-12-18T00:48:25.113Z,43.45
2022-12-18T00:51:28.763Z,51.50
2022-12-18T00:54:32.246Z,42.30
2022-12-18T00:57:35.706Z,38.47
2022-12-18T01:00:39.606Z,44.40
2022-12-18T01:03:43.300Z,44.25
2022-12-18T01:06:46.901Z,41.73
2022-12-18T01:09:50.177Z,42.13
2022-12-18T01:12:53.645Z,45.30
2022-12-18T01:15:57.132Z,48.63
2022-12-18T01:19:00.557Z,47.00
2022-12-18T01:22:04.492Z,45.13
2022-12-18T01:25:08.439Z,35.72
2022-12-18T01:28:12.531Z,46.93
2022-12-18T01:31:22.414Z,46.80
2022-12-18T01:34:26.186Z,46.67
2022-12-18T01:37:30.054Z,43.07
2022-12-18T01:40:33.684Z,54.15
2022-12-18T01:44:00.586Z,43.28
2022-12-18T01:47:04.113Z,42.75
2022-12-18T01:50:35.266Z,43.27
2022-12-18T01:53:41.939Z,40.47
2022-12-18T01:56:46.305Z,41.63
2022-12-18T01:59:53.683Z,26.87
2022-12-18T02:02:57.376Z,33.90
2022-12-18T02:06:15.620Z,33.72
2022-12-18T02:09:30.885Z,34.65
2022-12-18T02:12:58.843Z,38.40
2022-12-18T02:16:29.500Z,33.65
2022-12-18T02:19:41.889Z,38.65
2022-12-18T02:23:21.791Z,39.60
2022-12-18T02:26:31.048Z,40.58
2022-12-18T02:29:58.509Z,43.95
2022-12-18T02:33:08.588Z,42.53
2022-12-18T02:36:14.119Z,30.87
2022-12-18T02:39:21.275Z,34.28
2022-12-18T02:42:34.663Z,40.05
2022-12-18T02:45:58.632Z,44.03
2022-12-18T02:49:13.277Z,37.65
2022-12-18T02:52:52.637Z,38.47
2022-12-18T02:56:13.013Z,35.30
2022-12-18T02:59:32.959Z,40.03
2022-12-18T03:02:48.803Z,38.20
2022-12-18T03:05:58.587Z,42.17
2022-12-18T03:09:19.481Z,37.67
2022-12-18T03:12:36.171Z,36.60
2022-12-18T03:15:49.107Z,37.00
2022-12-18T03:19:12.003Z,40.15
2022-12-18T03:22:19.763Z,31.35
2022-12-18T03:25:28.902Z,35.67
2022-12-18T03:28:37.748Z,25.33
2022-12-18T03:31:43.743Z,37.20
2022-12-18T03:34:51.272Z,32.47
2022-12-18T03:37:57.761Z,41.17
2022-12-18T03:41:28.911Z,25.67
2022-12-18T03:45:32.486Z,28.55
2022-12-18T03:49:01.213Z,38.97
2022-12-18T03:52:10.235Z,29.77
2022-12-18T03:55:16.501Z,28.33
2022-12-18T03:58:26.577Z,40.10
2022-12-18T04:01:49.905Z,42.80
2022-12-18T04:04:58.061Z,41.73
2022-12-18T04:08:02.203Z,38.63
2022-12-18T04:11:06.062Z,34.92
2022-12-18T04:14:14.375Z,37.70
2022-12-18T04:17:21.646Z,40.47
2022-12-18T04:20:25.508Z,26.83
2022-12-18T04:23:30.490Z,37.08
2022-12-18T04:26:36.205Z,47.63
2022-12-18T04:29:48.677Z,33.80
2022-12-18T04:32:53.078Z,45.15
2022-12-18T04:35:58.248Z,42.17
2022-12-18T04:39:02.280Z,50.92
2022-12-18T04:42:05.735Z,43.95
2022-12-18T04:45:10.098Z,42.33
2022-12-18T04:48:13.673Z,48.92
2022-12-18T04:51:18.277Z,38.40
2022-12-18T04:54:24.255Z,52.88
2022-12-18T04:57:27.658Z,49.75
2022-12-18T05:00:31.172Z,49.42
2022-12-18T05:03:35.070Z,47.00
2022-12-18T05:06:38.523Z,47.60
2022-12-18T05:09:41.953Z,54.20
2022-12-18T05:13:01.378Z,53.85
2022-12-18T05:16:05.451Z,50.97
2022-12-18T05:19:09.134Z,56.50
2022-12-18T05:22:12.786Z,44.05
2022-12-18T05:25:16.296Z,36.97
2022-12-18T05:28:19.917Z,39.38
2022-12-18T05:31:23.902Z,47.42
2022-12-18T05:34:27.364Z,60.75
2022-12-18T05:37:30.809Z,49.50
2022-12-18T05:40:34.513Z,33.22
2022-12-18T05:43:41.979Z,44.92
2022-12-18T05:46:45.697Z,51.70
2022-12-18T05:49:49.073Z,42.35
2022-12-18T05:52:52.400Z,46.35
2022-12-18T05:55:55.781Z,51.67
2022-12-18T05:58:59.747Z,44.35
2022-12-18T06:02:03.382Z,52.38
2022-12-18T06:05:07.293Z,52.15
2022-12-18T06:08:11.711Z,55.53
2022-12-18T06:11:18.214Z,50.60
2022-12-18T06:14:21.602Z,35.40
2022-12-18T06:17:28.342Z,52.77
2022-12-18T06:20:33.896Z,46.78
2022-12-18T06:23:37.960Z,51.50
2022-12-18T06:26:41.554Z,51.67
2022-12-18T06:29:44.982Z,48.42
2022-12-18T06:32:54.669Z,47.40
2022-12-18T06:36:08.903Z,45.60
2022-12-18T06:39:12.553Z,47.33
2022-12-18T06:42:16.490Z,44.63
2022-12-18T06:45:19.848Z,47.25
2022-12-18T06:48:23.617Z,50.97
2022-12-18T06:51:27.467Z,50.78
2022-12-18T06:54:30.901Z,56.95
2022-12-18T06:57:34.353Z,46.58
2022-12-18T07:00:38.167Z,47.95
2022-12-18T07:03:43.359Z,46.70
2022-12-18T07:06:47.252Z,48.85
2022-12-18T07:09:51.714Z,39.63
2022-12-18T07:12:55.046Z,49.08
2022-12-18T07:16:16.031Z,43.47
2022-12-18T07:19:21.963Z,45.77
2022-12-18T07:22:27.189Z,45.15
2022-12-18T07:25:30.571Z,39.13
2022-12-18T07:28:34.914Z,44.40
2022-12-18T07:31:38.788Z,40.17
2022-12-18T07:34:42.491Z,43.58
2022-12-18T07:37:45.898Z,43.65
2022-12-18T07:40:49.506Z,38.10
2022-12-18T07:43:52.896Z,40.43
2022-12-18T07:46:56.355Z,45.25
2022-12-18T07:49:59.701Z,45.17
2022-12-18T07:53:04.698Z,48.75
2022-12-18T07:56:28.655Z,42.43
2022-12-18T07:59:32.777Z,43.22
2022-12-18T08:02:36.481Z,42.38
2022-12-18T08:05:40.021Z,34.25
2022-12-18T08:08:43.639Z,40.13
2022-12-18T08:11:47.231Z,43.33
2022-12-18T08:14:50.641Z,41.90
2022-12-18T08:17:57.111Z,39.87
2022-12-18T08:21:13.579Z,38.78
2022-12-18T08:24:17.161Z,32.53
2022-12-18T08:27:29.359Z,44.30
2022-12-18T08:30:33.369Z,47.67
2022-12-18T08:33:39.484Z,37.10
2022-12-18T08:36:43.102Z,31.63
2022-12-18T08:39:46.638Z,35.83
2022-12-18T08:43:08.647Z,35.67
2022-12-18T08:46:13.151Z,47.90
2022-12-18T08:49:16.716Z,36.97
2022-12-18T08:52:20.231Z,41.47
2022-12-18T08:55:23.655Z,40.53
2022-12-18T08:58:27.031Z,36.72
2022-12-18T09:01:30.550Z,36.45
2022-12-18T09:04:35.018Z,41.28
2022-12-18T09:07:38.720Z,38.28
2022-12-18T09:10:50.031Z,42.03
2022-12-18T09:13:54.920Z,37.13
2022-12-18T09:16:58.557Z,40.05
2022-12-18T09:20:02.279Z,36.83
2022-12-18T09:23:06.726Z,35.97
2022-12-18T09:26:11.213Z,27.63
2022-12-18T09:29:18.921Z,44.83
2022-12-18T09:32:22.979Z,38.80
2022-12-18T09:35:26.540Z,33.63
2022-12-18T09:38:30.173Z,34.88
2022-12-18T09:41:37.770Z,37.45
2022-12-18T09:44:47.534Z,35.13
2022-12-18T09:47:53.494Z,24.83
2022-12-18T09:51:02.151Z,36.35
2022-12-18T09:54:28.441Z,36.13
2022-12-18T09:57:38.379Z,32.67
2022-12-18T10:00:42.345Z,33.55
2022-12-18T10:03:46.638Z,33.10
2022-12-18T10:06:49.924Z,35.35
2022-12-18T10:10:07.800Z,33.17
2022-12-18T10:13:20.291Z,28.38
2022-12-18T10:16:35.759Z,32.55
2022-12-18T10:20:00.147Z,23.83
2022-12-18T10:23:21.993Z,29.13
2022-12-18T10:26:26.441Z,35.08
2022-12-18T10:29:30.798Z,31.95
2022-12-18T10:32:34.197Z,39.30
2022-12-18T10:35:41.390Z,32.13
2022-12-18T10:38:44.973Z,32.60
2022-12-18T10:41:51.623Z,36.23
2022-12-18T10:45:15.567Z,33.72
2022-12-18T10:48:25.014Z,35.97
2022-12-18T10:51:39.172Z,32.50
2022-12-18T10:54:53.238Z,33.80
2022-12-18T10:58:26.734Z,32.00
2022-12-18T11:01:51.193Z,36.72
2022-12-18T11:04:54.852Z,40.30
2022-12-18T11:07:59.921Z,29.45
2022-12-18T11:11:03.868Z,30.83
2022-12-18T11:14:18.798Z,26.52
2022-12-18T11:17:30.297Z,30.33
2022-12-18T11:20:36.986Z,24.20
2022-12-18T11:23:53.466Z,30.33
2022-12-18T11:27:05.668Z,28.35
2022-12-18T11:30:36.495Z,33.75
2022-12-18T11:34:04.857Z,30.27
2022-12-18T11:37:12.248Z,37.47
2022-12-18T11:40:28.662Z,33.27
2022-12-18T11:43:35.237Z,29.92
2022-12-18T11:46:57.221Z,26.95
2022-12-18T11:50:11.821Z,34.03
2022-12-18T11:53:15.498Z,31.80
2022-12-18T11:56:42.185Z,28.48
2022-12-18T12:00:02.578Z,30.13
2022-12-18T12:03:25.587Z,32.92
2022-12-18T12:06:32.159Z,35.00
2022-12-18T12:09:50.602Z,37.25
2022-12-18T12:13:15.432Z,31.95
2022-12-18T12:16:38.732Z,36.67
2022-12-18T12:19:51.068Z,29.20
2022-12-18T12:23:30.706Z,28.92
2022-12-18T12:27:18.161Z,28.90
2022-12-18T12:30:40.479Z,30.33
2022-12-18T12:34:14.569Z,28.27
2022-12-18T12:37:35.740Z,28.38
2022-12-18T12:40:53.983Z,30.48
2022-12-18T12:44:06.483Z,38.00
2022-12-18T12:47:28.924Z,34.33
2022-12-18T12:50:36.614Z,31.15
2022-12-18T12:53:41.015Z,31.38
2022-12-18T12:56:45.722Z,35.88
2022-12-18T12:59:57.981Z,30.73
2022-12-18T13:03:21.166Z,28.40
2022-12-18T13:06:46.359Z,36.53
2022-12-18T13:10:23.788Z,41.50
2022-12-18T13:13:51.489Z,35.43
2022-12-18T13:17:21.280Z,33.65
2022-12-18T13:20:38.469Z,30.73
2022-12-18T13:23:42.506Z,31.30
2022-12-18T13:26:46.187Z,37.67
2022-12-18T13:29:49.977Z,31.92
2022-12-18T13:33:17.545Z,33.42
2022-12-18T13:36:23.894Z,37.60
2022-12-18T13:39:35.537Z,36.42
2022-12-18T13:43:01.403Z,36.80
2022-12-18T13:46:23.770Z,28.30
2022-12-18T13:49:39.912Z,36.50
2022-12-18T13:52:45.191Z,28.90
2022-12-18T13:55:50.181Z,32.88
2022-12-18T13:59:15.373Z,30.55
2022-12-18T14:02:29.903Z,31.90
2022-12-18T14:05:38.738Z,33.50
2022-12-18T14:08:45.456Z,34.75
2022-12-18T14:11:53.021Z,29.15
2022-12-18T14:14:56.773Z,31.13
2022-12-18T14:18:15.015Z,33.78
2022-12-18T14:21:30.795Z,33.58
2022-12-18T14:24:34.704Z,52.77
2022-12-18T14:27:42.677Z,74.53
2022-12-18T14:30:47.924Z,44.33
2022-12-18T14:33:52.074Z,31.40
2022-12-18T14:36:57.218Z,35.78
2022-12-18T14:40:11.393Z,40.35
2022-12-18T14:43:15.203Z,41.70
2022-12-18T14:46:30.583Z,64.23
2022-12-18T14:49:38.191Z,50.90
2022-12-18T14:52:41.698Z,46.70
2022-12-18T14:55:49.140Z,54.35
2022-12-18T14:58:56.070Z,53.92
2022-12-18T15:02:12.072Z,46.22
2022-12-18T15:05:15.740Z,55.83
2022-12-18T15:08:49.234Z,37.83
2022-12-18T15:11:58.925Z,38.00
2022-12-18T15:15:03.219Z,47.33
2022-12-18T15:18:13.681Z,55.53
2022-12-18T15:21:20.853Z,51.23
2022-12-18T15:24:31.394Z,55.22
2022-12-18T15:27:38.833Z,71.78
2022-12-18T15:31:03.501Z,69.07
2022-12-18T15:34:14.866Z,69.63
2022-12-18T15:37:18.602Z,65.07
2022-12-18T15:40:25.046Z,62.25
2022-12-18T15:43:34.662Z,54.73
2022-12-18T15:46:38.225Z,68.22
2022-12-18T15:49:43.162Z,67.10
2022-12-18T15:52:50.802Z,67.88
2022-12-18T15:56:12.447Z,63.17
2022-12-18T15:59:18.578Z,62.33
2022-12-18T16:02:24.060Z,70.80
2022-12-18T16:05:29.209Z,50.13
2022-12-18T16:08:33.431Z,57.25
2022-12-18T16:11:39.950Z,51.38
2022-12-18T16:14:43.752Z,47.92
2022-12-18T16:17:49.227Z,56.37
2022-12-18T16:20:53.008Z,70.10
2022-12-18T16:23:56.382Z,55.90
2022-12-18T16:27:01.465Z,55.67
2022-12-18T16:30:05.868Z,49.53
2022-12-18T16:33:11.607Z,37.55
2022-12-18T16:36:15.262Z,38.80
2022-12-18T16:39:19.474Z,34.85
2022-12-18T16:42:23.109Z,36.55
2022-12-18T16:45:26.688Z,39.65
2022-12-18T16:48:30.338Z,37.77
2022-12-18T16:51:35.383Z,39.45
2022-12-18T16:54:39.139Z,37.08
2022-12-18T16:57:42.781Z,37.50
2022-12-18T17:00:46.522Z,38.47
2022-12-18T17:04:03.931Z,37.70
2022-12-18T17:07:07.745Z,32.92
2022-12-18T17:10:11.335Z,32.00
2022-12-18T17:13:22.686Z,36.40
2022-12-18T17:16:29.349Z,30.27
2022-12-18T17:19:33.172Z,38.27
2022-12-18T17:22:36.906Z,32.47
2022-12-18T17:25:41.110Z,29.88
2022-12-18T17:28:45.145Z,31.88
2022-12-18T17:31:49.206Z,28.73
2022-12-18T17:34:53.651Z,42.63
2022-12-18T17:37:57.236Z,41.38
2022-12-18T17:41:06.050Z,59.13
2022-12-18T17:44:10.294Z,76.65
2022-12-18T17:47:14.429Z,76.43
2022-12-18T17:50:18.490Z,40.53
2022-12-18T17:53:22.271Z,33.17
2022-12-18T17:56:26.398Z,29.25
2022-12-18T17:59:31.260Z,35.78
2022-12-18T18:02:35.114Z,38.40
2022-12-18T18:05:39.546Z,45.75
2022-12-18T18:08:44.614Z,48.97
2022-12-18T18:12:07.657Z,44.93
2022-12-18T18:15:11.792Z,50.88
2022-12-18T18:18:15.156Z,43.95
2022-12-18T18:21:20.662Z,45.90
2022-12-18T18:24:26.029Z,45.47
2022-12-18T18:27:36.893Z,51.75
2022-12-18T18:30:42.745Z,39.17
2022-12-18T18:33:46.578Z,28.35
2022-12-18T18:36:50.219Z,33.55
2022-12-18T18:39:54.180Z,35.33
2022-12-18T18:42:57.964Z,36.83
2022-12-18T18:46:03.924Z,38.15
2022-12-18T18:49:08.056Z,42.22
2022-12-18T18:52:11.683Z,37.37
2022-12-18T18:55:25.439Z,39.03
2022-12-18T18:58:30.263Z,44.10
2022-12-18T19:01:34.096Z,44.28
2022-12-18T19:04:38.892Z,47.40
2022-12-18T19:07:49.454Z,62.67
2022-12-18T19:10:57.777Z,56.70
2022-12-18T19:14:04.442Z,63.87
2022-12-18T19:17:09.516Z,53.10
2022-12-18T19:20:13.356Z,51.22
2022-12-18T19:23:17.118Z,48.97
2022-12-18T19:26:30.154Z,47.80
2022-12-18T19:29:33.631Z,51.72
2022-12-18T19:32:37.281Z,47.45
2022-12-18T19:35:41.125Z,59.08
2022-12-18T19:38:45.626Z,69.72
2022-12-18T19:41:49.526Z,65.30
2022-12-18T19:44:53.199Z,58.20
2022-12-18T19:48:01.095Z,69.47
2022-12-18T19:51:21.129Z,60.53
2022-12-18T19:54:24.933Z,53.27
2022-12-18T19:57:31.548Z,50.05
2022-12-18T20:00:36.461Z,48.22
2022-12-18T20:03:40.736Z,43.42
2022-12-18T20:06:53.410Z,41.70
2022-12-18T20:10:02.757Z,35.10
2022-12-18T20:13:12.195Z,43.22
2022-12-18T20:16:18.801Z,38.30
2022-12-18T20:19:22.832Z,50.55
2022-12-18T20:22:26.900Z,35.42
2022-12-18T20:25:30.645Z,39.87
2022-12-18T20:28:34.510Z,36.17
2022-12-18T20:31:38.399Z,37.20
2022-12-18T20:34:42.206Z,38.10
2022-12-18T20:37:49.846Z,46.45
2022-12-18T20:40:54.330Z,43.47
2022-12-18T20:43:57.745Z,57.20
2022-12-18T20:47:07.450Z,56.70
2022-12-18T20:50:12.652Z,34.72
2022-12-18T20:53:16.176Z,38.33
2022-12-18T20:56:23.318Z,30.33
2022-12-18T20:59:27.405Z,38.10
2022-12-18T21:02:31.141Z,36.53
2022-12-18T21:05:34.788Z,38.03
2022-12-18T21:08:40.339Z,69.97
2022-12-18T21:12:03.623Z,88.50
2022-12-18T21:15:09.708Z,64.50
2022-12-18T21:18:13.304Z,53.33
2022-12-18T21:21:18.770Z,45.95
2022-12-18T21:24:27.090Z,40.08
2022-12-18T21:27:33.205Z,38.57
2022-12-18T21:30:36.750Z,36.35
2022-12-18T21:33:40.529Z,36.47
2022-12-18T21:36:44.377Z,40.10
2022-12-18T21:39:49.334Z,39.30
2022-12-18T21:43:13.912Z,34.92
2022-12-18T21:46:21.167Z,32.72
2022-12-18T21:49:24.982Z,32.13
2022-12-18T21:52:32.112Z,44.85
2022-12-18T21:55:35.814Z,40.60
2022-12-18T21:58:39.583Z,42.53
2022-12-18T22:02:02.813Z,65.80
2022-12-18T22:05:06.478Z,69.03
2022-12-18T22:08:12.596Z,43.83
2022-12-18T22:11:16.464Z,35.63
2022-12-18T22:14:23.409Z,32.45
2022-12-18T22:17:27.374Z,37.03
2022-12-18T22:20:31.765Z,42.23
2022-12-18T22:23:35.111Z,36.88
2022-12-18T22:26:40.276Z,30.95
2022-12-18T22:30:02.284Z,33.20
2022-12-18T22:33:06.197Z,33.28
2022-12-18T22:36:09.739Z,33.10
2022-12-18T22:39:19.260Z,45.00
2022-12-18T22:42:22.773Z,37.70
2022-12-18T22:45:28.077Z,37.05
2022-12-18T22:48:31.914Z,29.80
2022-12-18T22:51:36.391Z,34.90
2022-12-18T22:54:39.828Z,34.25
2022-12-18T22:57:48.591Z,35.53
2022-12-18T23:00:52.549Z,35.33
2022-12-18T23:03:56.875Z,29.42
2022-12-18T23:07:00.265Z,31.90
2022-12-18T23:10:04.013Z,31.48
2022-12-18T23:13:07.650Z,29.92
2022-12-18T23:16:15.475Z,32.80
2022-12-18T23:19:19.777Z,31.90
2022-12-18T23:22:23.686Z,41.40
2022-12-18T23:25:27.095Z,42.70
2022-12-18T23:28:32.909Z,32.15
2022-12-18T23:31:38.716Z,37.63
2022-12-18T23:34:42.324Z,33.05
2022-12-18T23:38:02.361Z,35.20
2022-12-18T23:41:16.343Z,33.17
2022-12-18T23:44:19.877Z,36.17
2022-12-18T23:47:23.362Z,51.28
2022-12-18T23:50:29.083Z,39.63
2022-12-18T23:53:33.482Z,37.80
2022-12-18T23:56:37.051Z,32.47
2022-12-18T23:59:40.623Z,44.45
